sensor_id;sensor_type;location;lat;lon;timestamp;pressure;altitude;pressure_sealevel;temperature
34125;BMP280;20110;53.120;5.786;2023-05-16T00:00:56;101945.94;;;13.14
34125;BMP280;20110;53.120;5.786;2023-05-16T00:03:23;101948.56;;;13.19
34125;BMP280;20110;53.120;5.786;2023-05-16T00:05:49;101913.69;;;12.88
34125;BMP280;20110;53.120;5.786;2023-05-16T00:08:15;101957.44;;;13.03
34125;BMP280;20110;53.120;5.786;2023-05-16T00:10:41;101921.78;;;12.76
34125;BMP280;20110;53.120;5.786;2023-05-16T00:13:08;101953.16;;;12.89
34125;BMP280;20110;53.120;5.786;2023-05-16T00:15:34;101964.06;;;12.91
34125;BMP280;20110;53.120;5.786;2023-05-16T00:18:01;101957.34;;;12.85
34125;BMP280;20110;53.120;5.786;2023-05-16T00:20:27;101949.09;;;12.82
34125;BMP280;20110;53.120;5.786;2023-05-16T00:22:54;101950.06;;;12.85
34125;BMP280;20110;53.120;5.786;2023-05-16T00:25:22;101909.78;;;12.59
34125;BMP280;20110;53.120;5.786;2023-05-16T00:27:48;101955.84;;;12.89
34125;BMP280;20110;53.120;5.786;2023-05-16T00:30:14;101955.13;;;12.89
34125;BMP280;20110;53.120;5.786;2023-05-16T00:32:40;101956.38;;;12.82
34125;BMP280;20110;53.120;5.786;2023-05-16T00:35:06;101964.84;;;12.86
34125;BMP280;20110;53.120;5.786;2023-05-16T00:37:35;101942.47;;;12.65
34125;BMP280;20110;53.120;5.786;2023-05-16T00:40:03;101943.88;;;12.66
34125;BMP280;20110;53.120;5.786;2023-05-16T00:42:29;101963.13;;;12.83
34125;BMP280;20110;53.120;5.786;2023-05-16T00:44:56;101923.09;;;12.59
34125;BMP280;20110;53.120;5.786;2023-05-16T00:47:22;101931.81;;;12.59
34125;BMP280;20110;53.120;5.786;2023-05-16T00:49:48;101945.34;;;12.61
34125;BMP280;20110;53.120;5.786;2023-05-16T00:52:14;101953.13;;;12.65
34125;BMP280;20110;53.120;5.786;2023-05-16T00:54:40;101937.84;;;12.60
34125;BMP280;20110;53.120;5.786;2023-05-16T00:57:06;101914.47;;;12.47
34125;BMP280;20110;53.120;5.786;2023-05-16T00:59:34;101961.19;;;12.83
34125;BMP280;20110;53.120;5.786;2023-05-16T01:02:01;101972.31;;;12.93
34125;BMP280;20110;53.120;5.786;2023-05-16T01:04:28;101954.63;;;12.90
34125;BMP280;20110;53.120;5.786;2023-05-16T01:06:55;101936.06;;;12.73
34125;BMP280;20110;53.120;5.786;2023-05-16T01:09:22;101920.41;;;12.64
34125;BMP280;20110;53.120;5.786;2023-05-16T01:12:15;101962.41;;;12.88
34125;BMP280;20110;53.120;5.786;2023-05-16T01:15:19;101965.19;;;13.01
34125;BMP280;20110;53.120;5.786;2023-05-16T01:18:22;101962.09;;;12.97
34125;BMP280;20110;53.120;5.786;2023-05-16T01:20:59;101957.00;;;12.99
34125;BMP280;20110;53.120;5.786;2023-05-16T01:23:53;101955.34;;;12.91
34125;BMP280;20110;53.120;5.786;2023-05-16T01:26:26;101959.06;;;13.12
34125;BMP280;20110;53.120;5.786;2023-05-16T01:28:54;101935.69;;;12.94
34125;BMP280;20110;53.120;5.786;2023-05-16T01:31:21;101959.66;;;12.99
34125;BMP280;20110;53.120;5.786;2023-05-16T01:33:49;101954.63;;;12.90
34125;BMP280;20110;53.120;5.786;2023-05-16T01:36:45;101949.34;;;12.85
34125;BMP280;20110;53.120;5.786;2023-05-16T01:39:36;101938.50;;;12.77
34125;BMP280;20110;53.120;5.786;2023-05-16T01:42:18;101968.16;;;12.98
34125;BMP280;20110;53.120;5.786;2023-05-16T01:47:28;101948.59;;;12.84
34125;BMP280;20110;53.120;5.786;2023-05-16T01:50:14;101971.84;;;12.89
34125;BMP280;20110;53.120;5.786;2023-05-16T01:55:21;101934.25;;;12.57
34125;BMP280;20110;53.120;5.786;2023-05-16T01:57:49;101967.78;;;12.82
34125;BMP280;20110;53.120;5.786;2023-05-16T02:00:16;101972.59;;;12.84
34125;BMP280;20110;53.120;5.786;2023-05-16T02:02:42;101961.25;;;12.78
34125;BMP280;20110;53.120;5.786;2023-05-16T02:05:08;101968.47;;;12.83
34125;BMP280;20110;53.120;5.786;2023-05-16T02:07:34;101959.63;;;12.69
34125;BMP280;20110;53.120;5.786;2023-05-16T02:10:00;101894.25;;;12.22
34125;BMP280;20110;53.120;5.786;2023-05-16T02:12:26;101898.88;;;12.21
34125;BMP280;20110;53.120;5.786;2023-05-16T02:14:52;101966.59;;;12.72
34125;BMP280;20110;53.120;5.786;2023-05-16T02:17:18;101961.31;;;12.67
34125;BMP280;20110;53.120;5.786;2023-05-16T02:19:44;101966.94;;;12.63
34125;BMP280;20110;53.120;5.786;2023-05-16T02:22:09;101962.53;;;12.66
34125;BMP280;20110;53.120;5.786;2023-05-16T02:24:36;101973.22;;;12.60
34125;BMP280;20110;53.120;5.786;2023-05-16T02:27:02;101898.19;;;12.09
34125;BMP280;20110;53.120;5.786;2023-05-16T02:29:28;101968.69;;;12.50
34125;BMP280;20110;53.120;5.786;2023-05-16T02:31:55;101864.22;;;11.69
34125;BMP280;20110;53.120;5.786;2023-05-16T02:34:21;101969.44;;;12.44
34125;BMP280;20110;53.120;5.786;2023-05-16T02:36:46;101922.13;;;12.15
34125;BMP280;20110;53.120;5.786;2023-05-16T02:39:12;101969.16;;;12.48
34125;BMP280;20110;53.120;5.786;2023-05-16T02:41:38;101973.50;;;12.51
34125;BMP280;20110;53.120;5.786;2023-05-16T02:44:05;101951.59;;;12.34
34125;BMP280;20110;53.120;5.786;2023-05-16T02:46:33;101975.25;;;12.43
34125;BMP280;20110;53.120;5.786;2023-05-16T02:48:59;101960.06;;;12.32
34125;BMP280;20110;53.120;5.786;2023-05-16T02:51:27;101975.50;;;12.39
34125;BMP280;20110;53.120;5.786;2023-05-16T02:53:54;101961.06;;;12.24
34125;BMP280;20110;53.120;5.786;2023-05-16T02:56:24;101974.59;;;12.26
34125;BMP280;20110;53.120;5.786;2023-05-16T02:58:53;101979.69;;;12.29
34125;BMP280;20110;53.120;5.786;2023-05-16T03:01:20;101982.34;;;12.29
34125;BMP280;20110;53.120;5.786;2023-05-16T03:03:47;101985.50;;;12.28
34125;BMP280;20110;53.120;5.786;2023-05-16T03:06:13;101976.09;;;12.21
34125;BMP280;20110;53.120;5.786;2023-05-16T03:08:39;101963.56;;;12.10
34125;BMP280;20110;53.120;5.786;2023-05-16T03:11:05;101964.00;;;12.20
34125;BMP280;20110;53.120;5.786;2023-05-16T03:13:31;101982.53;;;12.37
34125;BMP280;20110;53.120;5.786;2023-05-16T03:15:59;101937.91;;;12.02
34125;BMP280;20110;53.120;5.786;2023-05-16T03:18:27;101960.16;;;12.10
34125;BMP280;20110;53.120;5.786;2023-05-16T03:20:53;101977.06;;;12.13
34125;BMP280;20110;53.120;5.786;2023-05-16T03:23:21;101925.41;;;11.69
34125;BMP280;20110;53.120;5.786;2023-05-16T03:25:48;101972.03;;;12.03
34125;BMP280;20110;53.120;5.786;2023-05-16T03:28:16;101968.06;;;12.32
34125;BMP280;20110;53.120;5.786;2023-05-16T03:30:45;101993.59;;;12.58
34125;BMP280;20110;53.120;5.786;2023-05-16T03:33:11;101981.50;;;12.57
34125;BMP280;20110;53.120;5.786;2023-05-16T03:35:37;101976.88;;;12.57
34125;BMP280;20110;53.120;5.786;2023-05-16T03:38:03;101981.19;;;12.66
34125;BMP280;20110;53.120;5.786;2023-05-16T03:40:29;101953.47;;;12.44
34125;BMP280;20110;53.120;5.786;2023-05-16T03:42:55;101985.78;;;12.71
34125;BMP280;20110;53.120;5.786;2023-05-16T03:45:21;101970.34;;;12.58
34125;BMP280;20110;53.120;5.786;2023-05-16T03:47:50;101985.53;;;12.69
34125;BMP280;20110;53.120;5.786;2023-05-16T03:50:17;101979.28;;;12.61
34125;BMP280;20110;53.120;5.786;2023-05-16T03:52:42;101982.66;;;12.67
34125;BMP280;20110;53.120;5.786;2023-05-16T03:55:09;101979.13;;;12.53
34125;BMP280;20110;53.120;5.786;2023-05-16T03:57:36;101982.22;;;12.52
34125;BMP280;20110;53.120;5.786;2023-05-16T04:00:07;102006.38;;;12.70
34125;BMP280;20110;53.120;5.786;2023-05-16T04:02:35;101972.06;;;12.56
34125;BMP280;20110;53.120;5.786;2023-05-16T04:05:01;102002.19;;;12.80
34125;BMP280;20110;53.120;5.786;2023-05-16T04:07:28;102005.78;;;12.89
34125;BMP280;20110;53.120;5.786;2023-05-16T04:09:54;102004.75;;;12.97
34125;BMP280;20110;53.120;5.786;2023-05-16T04:12:20;101991.47;;;12.92
34125;BMP280;20110;53.120;5.786;2023-05-16T04:14:47;101966.78;;;12.86
34125;BMP280;20110;53.120;5.786;2023-05-16T04:17:13;101994.75;;;13.09
34125;BMP280;20110;53.120;5.786;2023-05-16T04:19:40;102007.50;;;13.22
34125;BMP280;20110;53.120;5.786;2023-05-16T04:22:08;102006.47;;;13.25
34125;BMP280;20110;53.120;5.786;2023-05-16T04:24:34;101968.81;;;13.04
34125;BMP280;20110;53.120;5.786;2023-05-16T04:27:00;102015.84;;;13.37
34125;BMP280;20110;53.120;5.786;2023-05-16T04:29:26;102016.53;;;13.43
34125;BMP280;20110;53.120;5.786;2023-05-16T04:31:52;101990.19;;;13.34
34125;BMP280;20110;53.120;5.786;2023-05-16T04:34:18;102004.63;;;13.44
34125;BMP280;20110;53.120;5.786;2023-05-16T04:36:43;101988.00;;;13.32
34125;BMP280;20110;53.120;5.786;2023-05-16T04:39:09;101996.13;;;13.45
34125;BMP280;20110;53.120;5.786;2023-05-16T04:41:36;101999.00;;;13.47
34125;BMP280;20110;53.120;5.786;2023-05-16T04:44:03;102001.56;;;13.59
34125;BMP280;20110;53.120;5.786;2023-05-16T04:46:29;102030.44;;;13.84
34125;BMP280;20110;53.120;5.786;2023-05-16T04:48:56;102021.66;;;13.89
34125;BMP280;20110;53.120;5.786;2023-05-16T04:51:23;102027.38;;;13.99
34125;BMP280;20110;53.120;5.786;2023-05-16T04:53:49;101982.97;;;13.77
34125;BMP280;20110;53.120;5.786;2023-05-16T04:56:15;101994.69;;;13.93
34125;BMP280;20110;53.120;5.786;2023-05-16T04:58:42;102039.22;;;14.47
34125;BMP280;20110;53.120;5.786;2023-05-16T05:01:07;101998.81;;;14.50
34125;BMP280;20110;53.120;5.786;2023-05-16T05:03:33;102006.03;;;15.19
34125;BMP280;20110;53.120;5.786;2023-05-16T05:06:00;102038.69;;;15.97
34125;BMP280;20110;53.120;5.786;2023-05-16T05:08:26;102025.38;;;16.17
34125;BMP280;20110;53.120;5.786;2023-05-16T05:10:52;102033.06;;;16.34
34125;BMP280;20110;53.120;5.786;2023-05-16T05:13:17;102040.22;;;16.52
34125;BMP280;20110;53.120;5.786;2023-05-16T05:15:43;102000.28;;;16.41
34125;BMP280;20110;53.120;5.786;2023-05-16T05:18:09;102050.31;;;16.26
34125;BMP280;20110;53.120;5.786;2023-05-16T05:20:35;102059.00;;;15.66
34125;BMP280;20110;53.120;5.786;2023-05-16T05:23:01;102059.50;;;15.25
34125;BMP280;20110;53.120;5.786;2023-05-16T05:25:26;102056.22;;;15.00
34125;BMP280;20110;53.120;5.786;2023-05-16T05:27:52;102053.78;;;14.83
34125;BMP280;20110;53.120;5.786;2023-05-16T05:30:18;102056.63;;;14.72
34125;BMP280;20110;53.120;5.786;2023-05-16T05:32:44;102063.00;;;14.69
34125;BMP280;20110;53.120;5.786;2023-05-16T05:35:10;102055.16;;;14.71
34125;BMP280;20110;53.120;5.786;2023-05-16T05:37:35;101986.84;;;14.38
34125;BMP280;20110;53.120;5.786;2023-05-16T05:40:01;102062.22;;;15.19
34125;BMP280;20110;53.120;5.786;2023-05-16T05:42:28;102044.47;;;15.48
34125;BMP280;20110;53.120;5.786;2023-05-16T05:44:54;102054.59;;;15.82
34125;BMP280;20110;53.120;5.786;2023-05-16T05:47:20;102064.13;;;16.16
34125;BMP280;20110;53.120;5.786;2023-05-16T05:49:46;102058.94;;;16.18
34125;BMP280;20110;53.120;5.786;2023-05-16T05:52:12;102075.09;;;16.39
34125;BMP280;20110;53.120;5.786;2023-05-16T05:54:38;102074.50;;;16.33
34125;BMP280;20110;53.120;5.786;2023-05-16T05:57:04;102076.41;;;16.12
34125;BMP280;20110;53.120;5.786;2023-05-16T05:59:30;101988.84;;;15.28
34125;BMP280;20110;53.120;5.786;2023-05-16T06:01:56;102062.72;;;15.63
34125;BMP280;20110;53.120;5.786;2023-05-16T06:04:22;102055.50;;;15.45
34125;BMP280;20110;53.120;5.786;2023-05-16T06:06:48;102000.25;;;15.02
34125;BMP280;20110;53.120;5.786;2023-05-16T06:09:14;102071.38;;;15.56
34125;BMP280;20110;53.120;5.786;2023-05-16T06:11:41;102079.28;;;15.61
34125;BMP280;20110;53.120;5.786;2023-05-16T06:14:07;102079.00;;;15.65
34125;BMP280;20110;53.120;5.786;2023-05-16T06:16:33;102014.56;;;15.31
34125;BMP280;20110;53.120;5.786;2023-05-16T06:18:59;102086.13;;;15.89
34125;BMP280;20110;53.120;5.786;2023-05-16T06:21:25;102089.16;;;16.19
34125;BMP280;20110;53.120;5.786;2023-05-16T06:23:51;102086.78;;;16.63
34125;BMP280;20110;53.120;5.786;2023-05-16T06:26:17;102085.91;;;16.81
34125;BMP280;20110;53.120;5.786;2023-05-16T06:28:42;102098.34;;;16.91
34125;BMP280;20110;53.120;5.786;2023-05-16T06:31:08;102104.31;;;16.98
34125;BMP280;20110;53.120;5.786;2023-05-16T06:33:34;102103.69;;;17.33
34125;BMP280;20110;53.120;5.786;2023-05-16T06:36:00;102099.72;;;17.55
34125;BMP280;20110;53.120;5.786;2023-05-16T06:38:26;102074.06;;;17.46
34125;BMP280;20110;53.120;5.786;2023-05-16T06:40:52;102091.28;;;17.51
34125;BMP280;20110;53.120;5.786;2023-05-16T06:43:18;102088.16;;;17.39
34125;BMP280;20110;53.120;5.786;2023-05-16T06:45:44;102069.25;;;17.24
34125;BMP280;20110;53.120;5.786;2023-05-16T06:48:13;102107.53;;;17.45
34125;BMP280;20110;53.120;5.786;2023-05-16T06:50:39;102089.63;;;17.40
34125;BMP280;20110;53.120;5.786;2023-05-16T06:53:05;102090.34;;;17.41
34125;BMP280;20110;53.120;5.786;2023-05-16T06:55:33;102106.63;;;17.71
34125;BMP280;20110;53.120;5.786;2023-05-16T06:57:59;102114.81;;;18.01
34125;BMP280;20110;53.120;5.786;2023-05-16T07:00:25;102080.16;;;17.83
34125;BMP280;20110;53.120;5.786;2023-05-16T07:02:51;102103.00;;;17.97
34125;BMP280;20110;53.120;5.786;2023-05-16T07:05:17;102102.78;;;17.95
34125;BMP280;20110;53.120;5.786;2023-05-16T07:07:43;102116.66;;;18.06
34125;BMP280;20110;53.120;5.786;2023-05-16T07:10:10;102093.22;;;18.15
34125;BMP280;20110;53.120;5.786;2023-05-16T07:12:36;102126.31;;;18.61
34125;BMP280;20110;53.120;5.786;2023-05-16T07:15:05;102121.09;;;18.63
34125;BMP280;20110;53.120;5.786;2023-05-16T07:17:31;102051.06;;;18.09
34125;BMP280;20110;53.120;5.786;2023-05-16T07:19:57;102112.69;;;18.74
34125;BMP280;20110;53.120;5.786;2023-05-16T07:22:23;102127.78;;;18.92
34125;BMP280;20110;53.120;5.786;2023-05-16T07:24:49;102137.09;;;19.21
34125;BMP280;20110;53.120;5.786;2023-05-16T07:27:17;102087.53;;;19.40
34125;BMP280;20110;53.120;5.786;2023-05-16T07:29:43;102139.84;;;20.24
34125;BMP280;20110;53.120;5.786;2023-05-16T07:32:09;102112.56;;;20.13
34125;BMP280;20110;53.120;5.786;2023-05-16T07:34:35;102138.16;;;19.96
34125;BMP280;20110;53.120;5.786;2023-05-16T07:37:00;102107.31;;;19.27
34125;BMP280;20110;53.120;5.786;2023-05-16T07:39:26;102127.22;;;19.09
34125;BMP280;20110;53.120;5.786;2023-05-16T07:41:52;102143.41;;;18.94
34125;BMP280;20110;53.120;5.786;2023-05-16T07:44:18;102131.00;;;18.83
34125;BMP280;20110;53.120;5.786;2023-05-16T07:46:44;102109.09;;;18.64
34125;BMP280;20110;53.120;5.786;2023-05-16T07:49:10;102098.13;;;18.54
34125;BMP280;20110;53.120;5.786;2023-05-16T07:51:37;102137.28;;;18.85
34125;BMP280;20110;53.120;5.786;2023-05-16T07:54:03;102117.53;;;18.75
34125;BMP280;20110;53.120;5.786;2023-05-16T07:56:28;102138.72;;;18.86
34125;BMP280;20110;53.120;5.786;2023-05-16T07:58:55;102120.59;;;18.72
34125;BMP280;20110;53.120;5.786;2023-05-16T08:01:21;102147.91;;;18.91
34125;BMP280;20110;53.120;5.786;2023-05-16T08:03:47;102074.63;;;18.55
34125;BMP280;20110;53.120;5.786;2023-05-16T08:06:13;102104.78;;;18.83
34125;BMP280;20110;53.120;5.786;2023-05-16T08:08:39;102113.06;;;19.23
34125;BMP280;20110;53.120;5.786;2023-05-16T08:11:06;102124.88;;;19.98
34125;BMP280;20110;53.120;5.786;2023-05-16T08:13:32;102138.22;;;20.78
34125;BMP280;20110;53.120;5.786;2023-05-16T08:15:58;102087.16;;;20.73
34125;BMP280;20110;53.120;5.786;2023-05-16T08:18:24;102140.81;;;21.45
34125;BMP280;20110;53.120;5.786;2023-05-16T08:20:51;102144.66;;;21.42
34125;BMP280;20110;53.120;5.786;2023-05-16T08:23:17;102104.56;;;20.79
34125;BMP280;20110;53.120;5.786;2023-05-16T08:25:43;102119.41;;;20.46
34125;BMP280;20110;53.120;5.786;2023-05-16T08:28:09;102129.72;;;20.32
34125;BMP280;20110;53.120;5.786;2023-05-16T08:30:35;102155.44;;;20.58
34125;BMP280;20110;53.120;5.786;2023-05-16T08:33:00;102147.00;;;21.04
34125;BMP280;20110;53.120;5.786;2023-05-16T08:35:29;102134.94;;;21.56
34125;BMP280;20110;53.120;5.786;2023-05-16T08:37:56;102145.81;;;21.83
34125;BMP280;20110;53.120;5.786;2023-05-16T08:40:25;102086.41;;;21.31
34125;BMP280;20110;53.120;5.786;2023-05-16T08:42:51;102151.44;;;21.77
34125;BMP280;20110;53.120;5.786;2023-05-16T08:45:18;102154.44;;;21.55
34125;BMP280;20110;53.120;5.786;2023-05-16T08:47:48;102121.88;;;20.93
34125;BMP280;20110;53.120;5.786;2023-05-16T08:50:15;102125.28;;;20.77
34125;BMP280;20110;53.120;5.786;2023-05-16T08:52:43;102120.19;;;21.06
34125;BMP280;20110;53.120;5.786;2023-05-16T08:55:12;102131.28;;;21.61
34125;BMP280;20110;53.120;5.786;2023-05-16T08:57:39;102150.16;;;21.78
34125;BMP280;20110;53.120;5.786;2023-05-16T09:00:07;102163.25;;;21.99
34125;BMP280;20110;53.120;5.786;2023-05-16T09:02:40;102150.09;;;21.86
34125;BMP280;20110;53.120;5.786;2023-05-16T09:05:10;102140.25;;;21.64
34125;BMP280;20110;53.120;5.786;2023-05-16T09:07:36;102159.41;;;21.75
34125;BMP280;20110;53.120;5.786;2023-05-16T09:10:04;102138.63;;;21.78
34125;BMP280;20110;53.120;5.786;2023-05-16T09:12:32;102169.69;;;22.31
34125;BMP280;20110;53.120;5.786;2023-05-16T09:15:04;102147.78;;;22.46
34125;BMP280;20110;53.120;5.786;2023-05-16T09:17:45;102164.03;;;22.92
34125;BMP280;20110;53.120;5.786;2023-05-16T09:20:16;102175.81;;;22.77
34125;BMP280;20110;53.120;5.786;2023-05-16T09:22:57;102173.09;;;22.31
34125;BMP280;20110;53.120;5.786;2023-05-16T09:25:29;102150.47;;;22.09
34125;BMP280;20110;53.120;5.786;2023-05-16T09:27:57;102174.59;;;22.15
34125;BMP280;20110;53.120;5.786;2023-05-16T09:30:29;102164.81;;;22.19
34125;BMP280;20110;53.120;5.786;2023-05-16T09:32:56;102173.38;;;22.62
34125;BMP280;20110;53.120;5.786;2023-05-16T09:35:22;102171.41;;;22.72
34125;BMP280;20110;53.120;5.786;2023-05-16T09:37:50;102156.72;;;22.75
34125;BMP280;20110;53.120;5.786;2023-05-16T09:40:22;102182.44;;;23.03
34125;BMP280;20110;53.120;5.786;2023-05-16T09:43:02;102180.88;;;23.19
34125;BMP280;20110;53.120;5.786;2023-05-16T09:45:31;102163.19;;;23.47
34125;BMP280;20110;53.120;5.786;2023-05-16T09:48:05;102147.78;;;23.21
34125;BMP280;20110;53.120;5.786;2023-05-16T09:50:36;102191.47;;;23.44
34125;BMP280;20110;53.120;5.786;2023-05-16T09:53:03;102168.75;;;23.49
34125;BMP280;20110;53.120;5.786;2023-05-16T09:55:30;102178.44;;;23.52
34125;BMP280;20110;53.120;5.786;2023-05-16T09:57:56;102157.63;;;23.07
34125;BMP280;20110;53.120;5.786;2023-05-16T10:00:32;102174.88;;;22.92
34125;BMP280;20110;53.120;5.786;2023-05-16T10:03:00;102144.63;;;22.76
34125;BMP280;20110;53.120;5.786;2023-05-16T10:05:28;102180.03;;;23.07
34125;BMP280;20110;53.120;5.786;2023-05-16T10:07:57;102174.59;;;23.36
34125;BMP280;20110;53.120;5.786;2023-05-16T10:10:25;102140.09;;;23.27
34125;BMP280;20110;53.120;5.786;2023-05-16T10:12:54;102195.41;;;23.72
34125;BMP280;20110;53.120;5.786;2023-05-16T10:15:24;102176.22;;;23.89
34125;BMP280;20110;53.120;5.786;2023-05-16T10:17:54;102137.63;;;23.60
34125;BMP280;20110;53.120;5.786;2023-05-16T10:20:22;102192.13;;;23.73
34125;BMP280;20110;53.120;5.786;2023-05-16T10:22:50;102192.72;;;23.43
34125;BMP280;20110;53.120;5.786;2023-05-16T10:25:39;102193.84;;;23.11
34125;BMP280;20110;53.120;5.786;2023-05-16T10:28:07;102190.59;;;23.13
34125;BMP280;20110;53.120;5.786;2023-05-16T10:30:33;102187.44;;;23.07
34125;BMP280;20110;53.120;5.786;2023-05-16T10:33:01;102192.44;;;23.39
34125;BMP280;20110;53.120;5.786;2023-05-16T10:35:28;102170.63;;;23.27
34125;BMP280;20110;53.120;5.786;2023-05-16T10:37:54;102209.53;;;23.70
34125;BMP280;20110;53.120;5.786;2023-05-16T10:40:21;102197.91;;;23.99
34125;BMP280;20110;53.120;5.786;2023-05-16T10:43:01;102183.59;;;23.48
34125;BMP280;20110;53.120;5.786;2023-05-16T10:45:29;102197.00;;;23.65
34125;BMP280;20110;53.120;5.786;2023-05-16T10:48:03;102205.06;;;23.94
34125;BMP280;20110;53.120;5.786;2023-05-16T10:50:43;102175.56;;;23.69
34125;BMP280;20110;53.120;5.786;2023-05-16T11:01:22;102216.09;;;24.27
34125;BMP280;20110;53.120;5.786;2023-05-16T11:06:51;102199.16;;;24.07
34125;BMP280;20110;53.120;5.786;2023-05-16T11:09:22;102202.91;;;23.92
34125;BMP280;20110;53.120;5.786;2023-05-16T11:11:58;102198.19;;;24.03
34125;BMP280;20110;53.120;5.786;2023-05-16T11:14:36;102231.97;;;24.83
34125;BMP280;20110;53.120;5.786;2023-05-16T11:17:12;102216.63;;;25.30
34125;BMP280;20110;53.120;5.786;2023-05-16T11:19:47;102208.97;;;26.05
34125;BMP280;20110;53.120;5.786;2023-05-16T11:25:03;102188.44;;;26.39
34125;BMP280;20110;53.120;5.786;2023-05-16T11:27:42;102205.88;;;25.88
34125;BMP280;20110;53.120;5.786;2023-05-16T11:30:15;102203.28;;;26.01
34125;BMP280;20110;53.120;5.786;2023-05-16T11:32:47;102196.19;;;26.80
34125;BMP280;20110;53.120;5.786;2023-05-16T11:35:15;102205.84;;;26.34
34125;BMP280;20110;53.120;5.786;2023-05-16T11:37:44;102198.88;;;25.73
34125;BMP280;20110;53.120;5.786;2023-05-16T11:40:12;102209.44;;;26.13
34125;BMP280;20110;53.120;5.786;2023-05-16T11:42:44;102188.63;;;26.55
34125;BMP280;20110;53.120;5.786;2023-05-16T11:45:14;102199.25;;;27.50
34125;BMP280;20110;53.120;5.786;2023-05-16T11:47:42;102203.44;;;27.92
34125;BMP280;20110;53.120;5.786;2023-05-16T11:50:14;102219.72;;;27.90
34125;BMP280;20110;53.120;5.786;2023-05-16T11:52:49;102160.75;;;27.44
34125;BMP280;20110;53.120;5.786;2023-05-16T11:55:20;102204.84;;;27.27
34125;BMP280;20110;53.120;5.786;2023-05-16T11:57:50;102207.75;;;26.43
34125;BMP280;20110;53.120;5.786;2023-05-16T12:00:22;102202.97;;;25.51
34125;BMP280;20110;53.120;5.786;2023-05-16T12:02:51;102209.44;;;26.02
34125;BMP280;20110;53.120;5.786;2023-05-16T12:05:19;102214.31;;;26.27
34125;BMP280;20110;53.120;5.786;2023-05-16T12:07:46;102171.16;;;26.83
34125;BMP280;20110;53.120;5.786;2023-05-16T12:10:14;102231.13;;;27.73
34125;BMP280;20110;53.120;5.786;2023-05-16T12:12:44;102206.28;;;27.80
34125;BMP280;20110;53.120;5.786;2023-05-16T12:15:11;102204.63;;;28.30
34125;BMP280;20110;53.120;5.786;2023-05-16T12:17:39;102206.69;;;28.02
34125;BMP280;20110;53.120;5.786;2023-05-16T12:20:08;102203.53;;;27.28
34125;BMP280;20110;53.120;5.786;2023-05-16T12:22:45;102177.38;;;26.60
34125;BMP280;20110;53.120;5.786;2023-05-16T12:25:33;102211.25;;;27.20
34125;BMP280;20110;53.120;5.786;2023-05-16T12:28:03;102208.97;;;27.53
34125;BMP280;20110;53.120;5.786;2023-05-16T12:30:31;102225.09;;;27.88
34125;BMP280;20110;53.120;5.786;2023-05-16T12:32:59;102226.88;;;27.70
34125;BMP280;20110;53.120;5.786;2023-05-16T12:35:30;102231.31;;;27.63
34125;BMP280;20110;53.120;5.786;2023-05-16T12:37:57;102163.41;;;26.91
34125;BMP280;20110;53.120;5.786;2023-05-16T12:40:27;102220.72;;;27.30
34125;BMP280;20110;53.120;5.786;2023-05-16T12:42:54;102227.44;;;27.16
34125;BMP280;20110;53.120;5.786;2023-05-16T12:45:22;102219.66;;;27.10
34125;BMP280;20110;53.120;5.786;2023-05-16T12:47:48;102155.94;;;26.92
34125;BMP280;20110;53.120;5.786;2023-05-16T12:50:15;102151.09;;;26.90
34125;BMP280;20110;53.120;5.786;2023-05-16T12:52:58;102228.22;;;27.04
34125;BMP280;20110;53.120;5.786;2023-05-16T12:55:25;102232.72;;;26.51
34125;BMP280;20110;53.120;5.786;2023-05-16T12:57:51;102232.25;;;25.41
34125;BMP280;20110;53.120;5.786;2023-05-16T13:00:20;102180.72;;;24.67
34125;BMP280;20110;53.120;5.786;2023-05-16T13:02:47;102221.09;;;25.04
34125;BMP280;20110;53.120;5.786;2023-05-16T13:05:14;102216.97;;;25.03
34125;BMP280;20110;53.120;5.786;2023-05-16T13:07:40;102221.72;;;25.02
34125;BMP280;20110;53.120;5.786;2023-05-16T13:10:10;102216.31;;;25.14
34125;BMP280;20110;53.120;5.786;2023-05-16T13:12:40;102234.84;;;25.06
34125;BMP280;20110;53.120;5.786;2023-05-16T13:15:09;102230.31;;;24.47
34125;BMP280;20110;53.120;5.786;2023-05-16T13:17:38;102243.44;;;24.19
34125;BMP280;20110;53.120;5.786;2023-05-16T13:20:06;102232.84;;;24.23
34125;BMP280;20110;53.120;5.786;2023-05-16T13:22:43;102222.34;;;24.39
34125;BMP280;20110;53.120;5.786;2023-05-16T13:25:10;102198.50;;;24.38
34125;BMP280;20110;53.120;5.786;2023-05-16T13:27:36;102212.38;;;24.84
34125;BMP280;20110;53.120;5.786;2023-05-16T13:30:03;102188.00;;;25.29
34125;BMP280;20110;53.120;5.786;2023-05-16T13:32:29;102192.03;;;25.84
34125;BMP280;20110;53.120;5.786;2023-05-16T13:34:54;102236.28;;;26.31
34125;BMP280;20110;53.120;5.786;2023-05-16T13:37:21;102221.88;;;26.16
34125;BMP280;20110;53.120;5.786;2023-05-16T13:39:49;102222.59;;;26.05
34125;BMP280;20110;53.120;5.786;2023-05-16T13:42:15;102198.78;;;25.94
34125;BMP280;20110;53.120;5.786;2023-05-16T13:44:41;102229.06;;;25.77
34125;BMP280;20110;53.120;5.786;2023-05-16T13:47:08;102170.94;;;25.16
34125;BMP280;20110;53.120;5.786;2023-05-16T13:49:33;102220.72;;;25.52
34125;BMP280;20110;53.120;5.786;2023-05-16T13:51:59;102175.03;;;25.39
34125;BMP280;20110;53.120;5.786;2023-05-16T13:54:26;102217.72;;;25.48
34125;BMP280;20110;53.120;5.786;2023-05-16T13:56:52;102229.13;;;25.23
34125;BMP280;20110;53.120;5.786;2023-05-16T13:59:18;102131.78;;;24.56
34125;BMP280;20110;53.120;5.786;2023-05-16T14:01:44;102210.44;;;25.17
34125;BMP280;20110;53.120;5.786;2023-05-16T14:04:10;102209.09;;;25.40
34125;BMP280;20110;53.120;5.786;2023-05-16T14:06:36;102199.03;;;25.09
34125;BMP280;20110;53.120;5.786;2023-05-16T14:09:02;102229.16;;;25.35
34125;BMP280;20110;53.120;5.786;2023-05-16T14:11:28;102173.69;;;24.95
34125;BMP280;20110;53.120;5.786;2023-05-16T14:13:54;102212.03;;;24.90
34125;BMP280;20110;53.120;5.786;2023-05-16T14:16:20;102227.06;;;24.69
34125;BMP280;20110;53.120;5.786;2023-05-16T14:18:46;102206.63;;;24.38
34125;BMP280;20110;53.120;5.786;2023-05-16T14:21:12;102170.91;;;24.10